sensor_id;sensor_type;location;lat;lon;timestamp;temperature;humidity
21255;DHT22;10785;50.674;17.954;2022-09-13T00:01:08;11.50;99.90
21255;DHT22;10785;50.674;17.954;2022-09-13T00:03:36;11.40;99.90
21255;DHT22;10785;50.674;17.954;2022-09-13T00:06:09;11.40;99.90
21255;DHT22;10785;50.674;17.954;2022-09-13T00:08:39;11.40;99.90
21255;DHT22;10785;50.674;17.954;2022-09-13T00:11:15;11.40;99.90
21255;DHT22;10785;50.674;17.954;2022-09-13T00:13:44;11.30;99.90
21255;DHT22;10785;50.674;17.954;2022-09-13T00:16:15;11.30;99.90
21255;DHT22;10785;50.674;17.954;2022-09-13T00:18:44;11.20;99.90
21255;DHT22;10785;50.674;17.954;2022-09-13T00:21:14;11.20;99.90
21255;DHT22;10785;50.674;17.954;2022-09-13T00:23:43;11.10;99.90
21255;DHT22;10785;50.674;17.954;2022-09-13T00:26:15;11.10;99.90
21255;DHT22;10785;50.674;17.954;2022-09-13T00:28:46;11.10;99.90
21255;DHT22;10785;50.674;17.954;2022-09-13T00:31:18;11.10;99.90
21255;DHT22;10785;50.674;17.954;2022-09-13T00:33:46;11.00;99.90
21255;DHT22;10785;50.674;17.954;2022-09-13T00:36:15;11.00;99.90
21255;DHT22;10785;50.674;17.954;2022-09-13T00:38:44;10.90;99.90
21255;DHT22;10785;50.674;17.954;2022-09-13T00:41:16;10.90;99.90
21255;DHT22;10785;50.674;17.954;2022-09-13T00:43:48;10.80;99.90
21255;DHT22;10785;50.674;17.954;2022-09-13T00:46:26;10.80;99.90
21255;DHT22;10785;50.674;17.954;2022-09-13T00:49:02;10.70;99.90
21255;DHT22;10785;50.674;17.954;2022-09-13T00:51:35;10.70;99.90
21255;DHT22;10785;50.674;17.954;2022-09-13T00:54:04;10.60;99.90
21255;DHT22;10785;50.674;17.954;2022-09-13T00:56:36;10.60;99.90
21255;DHT22;10785;50.674;17.954;2022-09-13T00:59:08;10.50;99.90
21255;DHT22;10785;50.674;17.954;2022-09-13T01:01:40;10.50;99.90
21255;DHT22;10785;50.674;17.954;2022-09-13T01:04:11;10.40;99.90
21255;DHT22;10785;50.674;17.954;2022-09-13T01:06:40;10.40;99.90
21255;DHT22;10785;50.674;17.954;2022-09-13T01:09:10;10.40;99.90
21255;DHT22;10785;50.674;17.954;2022-09-13T01:11:44;10.40;99.90
21255;DHT22;10785;50.674;17.954;2022-09-13T01:14:17;10.40;99.90
21255;DHT22;10785;50.674;17.954;2022-09-13T01:16:46;10.40;99.90
21255;DHT22;10785;50.674;17.954;2022-09-13T01:19:15;10.40;99.90
21255;DHT22;10785;50.674;17.954;2022-09-13T01:22:15;10.40;99.90
21255;DHT22;10785;50.674;17.954;2022-09-13T01:25:18;10.40;99.90
21255;DHT22;10785;50.674;17.954;2022-09-13T01:31:09;10.40;99.90
21255;DHT22;10785;50.674;17.954;2022-09-13T01:33:53;10.40;99.90
21255;DHT22;10785;50.674;17.954;2022-09-13T01:36:47;10.50;99.90
21255;DHT22;10785;50.674;17.954;2022-09-13T01:39:24;10.40;99.90
21255;DHT22;10785;50.674;17.954;2022-09-13T01:42:06;10.30;99.90
21255;DHT22;10785;50.674;17.954;2022-09-13T01:44:45;10.30;99.90
21255;DHT22;10785;50.674;17.954;2022-09-13T01:47:24;10.30;99.90
21255;DHT22;10785;50.674;17.954;2022-09-13T01:50:03;10.20;99.90
21255;DHT22;10785;50.674;17.954;2022-09-13T01:52:41;10.20;99.90
21255;DHT22;10785;50.674;17.954;2022-09-13T01:55:15;10.20;99.90
21255;DHT22;10785;50.674;17.954;2022-09-13T01:57:49;10.20;99.90
21255;DHT22;10785;50.674;17.954;2022-09-13T02:00:19;10.20;99.90
21255;DHT22;10785;50.674;17.954;2022-09-13T02:02:52;10.10;99.90
21255;DHT22;10785;50.674;17.954;2022-09-13T02:05:27;10.10;99.90
21255;DHT22;10785;50.674;17.954;2022-09-13T02:08:01;10.20;99.90
21255;DHT22;10785;50.674;17.954;2022-09-13T02:10:34;10.10;99.90
21255;DHT22;10785;50.674;17.954;2022-09-13T02:13:09;10.10;99.90
21255;DHT22;10785;50.674;17.954;2022-09-13T02:15:42;10.10;99.90
21255;DHT22;10785;50.674;17.954;2022-09-13T02:18:16;10.10;99.90
21255;DHT22;10785;50.674;17.954;2022-09-13T02:20:49;10.10;99.90
21255;DHT22;10785;50.674;17.954;2022-09-13T02:23:22;10.20;99.90
21255;DHT22;10785;50.674;17.954;2022-09-13T02:25:53;10.10;99.90
21255;DHT22;10785;50.674;17.954;2022-09-13T02:28:27;10.10;99.90
21255;DHT22;10785;50.674;17.954;2022-09-13T02:30:58;10.00;99.90
21255;DHT22;10785;50.674;17.954;2022-09-13T02:33:33;10.00;99.90
21255;DHT22;10785;50.674;17.954;2022-09-13T02:36:04;9.90;99.90
21255;DHT22;10785;50.674;17.954;2022-09-13T02:38:39;9.90;99.90
21255;DHT22;10785;50.674;17.954;2022-09-13T02:41:16;9.90;99.90
21255;DHT22;10785;50.674;17.954;2022-09-13T02:43:49;9.90;99.90
21255;DHT22;10785;50.674;17.954;2022-09-13T02:46:32;9.80;99.90
21255;DHT22;10785;50.674;17.954;2022-09-13T02:49:11;9.80;99.90
21255;DHT22;10785;50.674;17.954;2022-09-13T02:51:48;9.80;99.90
21255;DHT22;10785;50.674;17.954;2022-09-13T02:54:24;9.70;99.90
21255;DHT22;10785;50.674;17.954;2022-09-13T02:57:00;9.70;99.90
21255;DHT22;10785;50.674;17.954;2022-09-13T02:59:31;9.80;99.90
21255;DHT22;10785;50.674;17.954;2022-09-13T03:02:04;9.70;99.90
21255;DHT22;10785;50.674;17.954;2022-09-13T03:04:34;9.70;99.90
21255;DHT22;10785;50.674;17.954;2022-09-13T03:07:05;9.70;99.90
21255;DHT22;10785;50.674;17.954;2022-09-13T03:09:40;9.70;99.90
21255;DHT22;10785;50.674;17.954;2022-09-13T03:12:22;9.70;99.90
21255;DHT22;10785;50.674;17.954;2022-09-13T03:15:02;9.60;99.90
21255;DHT22;10785;50.674;17.954;2022-09-13T03:17:46;9.60;99.90
21255;DHT22;10785;50.674;17.954;2022-09-13T03:20:23;9.60;99.90
21255;DHT22;10785;50.674;17.954;2022-09-13T03:23:12;9.60;99.90
21255;DHT22;10785;50.674;17.954;2022-09-13T03:26:04;9.70;99.90
21255;DHT22;10785;50.674;17.954;2022-09-13T03:28:41;9.70;99.90
21255;DHT22;10785;50.674;17.954;2022-09-13T03:31:17;9.80;99.90
21255;DHT22;10785;50.674;17.954;2022-09-13T03:33:55;9.80;99.90
21255;DHT22;10785;50.674;17.954;2022-09-13T03:36:31;9.80;99.90
21255;DHT22;10785;50.674;17.954;2022-09-13T03:39:08;9.80;99.90
21255;DHT22;10785;50.674;17.954;2022-09-13T03:41:43;9.80;99.90
21255;DHT22;10785;50.674;17.954;2022-09-13T03:44:16;9.70;99.90
21255;DHT22;10785;50.674;17.954;2022-09-13T03:46:48;9.70;99.90
21255;DHT22;10785;50.674;17.954;2022-09-13T03:49:19;9.70;99.90
21255;DHT22;10785;50.674;17.954;2022-09-13T03:51:51;9.70;99.90
21255;DHT22;10785;50.674;17.954;2022-09-13T03:54:23;9.70;99.90
21255;DHT22;10785;50.674;17.954;2022-09-13T03:57:07;9.70;99.90
21255;DHT22;10785;50.674;17.954;2022-09-13T03:59:36;9.70;99.90
21255;DHT22;10785;50.674;17.954;2022-09-13T04:02:06;9.70;99.90
21255;DHT22;10785;50.674;17.954;2022-09-13T04:04:38;9.70;99.90
21255;DHT22;10785;50.674;17.954;2022-09-13T04:07:10;9.70;99.90
21255;DHT22;10785;50.674;17.954;2022-09-13T04:09:39;9.70;99.90
21255;DHT22;10785;50.674;17.954;2022-09-13T04:12:08;9.70;99.90
21255;DHT22;10785;50.674;17.954;2022-09-13T04:14:37;9.70;99.90
21255;DHT22;10785;50.674;17.954;2022-09-13T04:17:06;9.70;99.90
21255;DHT22;10785;50.674;17.954;2022-09-13T04:19:35;9.80;99.90
21255;DHT22;10785;50.674;17.954;2022-09-13T04:22:03;9.80;99.90
21255;DHT22;10785;50.674;17.954;2022-09-13T04:24:33;9.90;99.90
21255;DHT22;10785;50.674;17.954;2022-09-13T04:27:02;9.90;99.90
21255;DHT22;10785;50.674;17.954;2022-09-13T04:29:31;10.00;99.90
21255;DHT22;10785;50.674;17.954;2022-09-13T04:32:00;10.00;99.90
21255;DHT22;10785;50.674;17.954;2022-09-13T04:34:29;10.00;99.90
21255;DHT22;10785;50.674;17.954;2022-09-13T04:36:57;10.10;99.90
21255;DHT22;10785;50.674;17.954;2022-09-13T04:39:26;10.20;99.90
21255;DHT22;10785;50.674;17.954;2022-09-13T04:41:55;10.70;99.90
21255;DHT22;10785;50.674;17.954;2022-09-13T04:44:24;11.20;99.90
21255;DHT22;10785;50.674;17.954;2022-09-13T04:46:53;11.70;99.90
21255;DHT22;10785;50.674;17.954;2022-09-13T04:49:21;12.30;99.90
21255;DHT22;10785;50.674;17.954;2022-09-13T04:51:52;12.50;99.90
21255;DHT22;10785;50.674;17.954;2022-09-13T04:54:21;12.70;99.90
21255;DHT22;10785;50.674;17.954;2022-09-13T04:56:49;13.00;99.90
21255;DHT22;10785;50.674;17.954;2022-09-13T04:59:19;13.40;99.90
21255;DHT22;10785;50.674;17.954;2022-09-13T05:01:48;13.70;99.90
21255;DHT22;10785;50.674;17.954;2022-09-13T05:04:17;14.20;99.90
21255;DHT22;10785;50.674;17.954;2022-09-13T05:06:45;15.00;99.90
21255;DHT22;10785;50.674;17.954;2022-09-13T05:09:15;15.60;99.90
21255;DHT22;10785;50.674;17.954;2022-09-13T05:11:44;16.00;99.90
21255;DHT22;10785;50.674;17.954;2022-09-13T05:14:12;16.40;99.90
21255;DHT22;10785;50.674;17.954;2022-09-13T05:16:42;16.90;99.90
21255;DHT22;10785;50.674;17.954;2022-09-13T05:19:11;17.50;99.90
21255;DHT22;10785;50.674;17.954;2022-09-13T05:21:40;17.80;99.90
21255;DHT22;10785;50.674;17.954;2022-09-13T05:24:08;18.20;99.90
21255;DHT22;10785;50.674;17.954;2022-09-13T05:26:38;18.00;99.90
21255;DHT22;10785;50.674;17.954;2022-09-13T05:29:06;17.80;99.90
21255;DHT22;10785;50.674;17.954;2022-09-13T05:31:36;17.60;99.90
21255;DHT22;10785;50.674;17.954;2022-09-13T05:34:09;17.40;99.90
21255;DHT22;10785;50.674;17.954;2022-09-13T05:36:38;16.90;99.90
21255;DHT22;10785;50.674;17.954;2022-09-13T05:39:08;16.90;99.90
21255;DHT22;10785;50.674;17.954;2022-09-13T05:41:59;17.00;99.90
21255;DHT22;10785;50.674;17.954;2022-09-13T05:44:27;17.00;99.90
21255;DHT22;10785;50.674;17.954;2022-09-13T05:46:56;17.30;99.90
21255;DHT22;10785;50.674;17.954;2022-09-13T05:49:26;17.80;99.90
21255;DHT22;10785;50.674;17.954;2022-09-13T05:51:54;18.20;99.90
21255;DHT22;10785;50.674;17.954;2022-09-13T05:54:23;18.60;99.90
21255;DHT22;10785;50.674;17.954;2022-09-13T05:56:51;18.80;99.60
21255;DHT22;10785;50.674;17.954;2022-09-13T05:59:23;19.00;99.90
21255;DHT22;10785;50.674;17.954;2022-09-13T06:01:52;18.80;98.80
21255;DHT22;10785;50.674;17.954;2022-09-13T06:04:20;18.80;98.00
21255;DHT22;10785;50.674;17.954;2022-09-13T06:06:50;18.10;99.90
21255;DHT22;10785;50.674;17.954;2022-09-13T06:09:21;17.60;99.90
21255;DHT22;10785;50.674;17.954;2022-09-13T06:11:49;17.10;99.90
21255;DHT22;10785;50.674;17.954;2022-09-13T06:14:17;16.70;99.90
21255;DHT22;10785;50.674;17.954;2022-09-13T06:16:46;16.20;99.90
21255;DHT22;10785;50.674;17.954;2022-09-13T06:19:14;15.90;99.90
21255;DHT22;10785;50.674;17.954;2022-09-13T06:21:43;15.50;99.90
21255;DHT22;10785;50.674;17.954;2022-09-13T06:24:13;15.30;99.90
21255;DHT22;10785;50.674;17.954;2022-09-13T06:26:42;15.10;99.90
21255;DHT22;10785;50.674;17.954;2022-09-13T06:29:11;15.00;99.90
21255;DHT22;10785;50.674;17.954;2022-09-13T06:31:39;14.90;99.90
21255;DHT22;10785;50.674;17.954;2022-09-13T06:34:12;14.60;99.90
21255;DHT22;10785;50.674;17.954;2022-09-13T06:36:42;14.40;99.90
21255;DHT22;10785;50.674;17.954;2022-09-13T06:39:12;14.50;99.90
21255;DHT22;10785;50.674;17.954;2022-09-13T06:41:41;14.40;99.90
21255;DHT22;10785;50.674;17.954;2022-09-13T06:44:09;14.30;99.90
21255;DHT22;10785;50.674;17.954;2022-09-13T06:46:37;14.10;99.90
21255;DHT22;10785;50.674;17.954;2022-09-13T06:49:07;14.10;99.90
21255;DHT22;10785;50.674;17.954;2022-09-13T06:51:36;14.20;99.90
21255;DHT22;10785;50.674;17.954;2022-09-13T06:54:04;14.30;99.90
21255;DHT22;10785;50.674;17.954;2022-09-13T06:56:36;14.40;99.90
21255;DHT22;10785;50.674;17.954;2022-09-13T06:59:06;14.50;99.90
21255;DHT22;10785;50.674;17.954;2022-09-13T07:01:36;14.50;99.90
21255;DHT22;10785;50.674;17.954;2022-09-13T07:04:06;14.70;99.90
21255;DHT22;10785;50.674;17.954;2022-09-13T07:06:37;14.70;99.90
21255;DHT22;10785;50.674;17.954;2022-09-13T07:09:08;14.80;99.90
21255;DHT22;10785;50.674;17.954;2022-09-13T07:11:40;15.20;99.90
21255;DHT22;10785;50.674;17.954;2022-09-13T07:14:12;15.40;99.90
21255;DHT22;10785;50.674;17.954;2022-09-13T07:16:41;15.80;99.90
21255;DHT22;10785;50.674;17.954;2022-09-13T07:19:13;16.00;99.90
21255;DHT22;10785;50.674;17.954;2022-09-13T07:21:42;16.20;99.90
21255;DHT22;10785;50.674;17.954;2022-09-13T07:24:11;16.60;99.90
21255;DHT22;10785;50.674;17.954;2022-09-13T07:26:41;16.80;99.90
21255;DHT22;10785;50.674;17.954;2022-09-13T07:29:11;17.00;99.90
21255;DHT22;10785;50.674;17.954;2022-09-13T07:31:42;17.10;99.90
21255;DHT22;10785;50.674;17.954;2022-09-13T07:34:13;17.20;99.90
21255;DHT22;10785;50.674;17.954;2022-09-13T07:36:42;17.20;99.90
21255;DHT22;10785;50.674;17.954;2022-09-13T07:39:11;17.10;99.90
21255;DHT22;10785;50.674;17.954;2022-09-13T07:41:45;16.90;99.90
21255;DHT22;10785;50.674;17.954;2022-09-13T07:44:14;16.90;99.90
21255;DHT22;10785;50.674;17.954;2022-09-13T07:46:42;17.00;99.90
21255;DHT22;10785;50.674;17.954;2022-09-13T07:49:12;17.00;99.90
21255;DHT22;10785;50.674;17.954;2022-09-13T07:51:42;17.20;99.90
21255;DHT22;10785;50.674;17.954;2022-09-13T07:54:12;17.20;99.90
21255;DHT22;10785;50.674;17.954;2022-09-13T07:56:41;17.30;99.90
21255;DHT22;10785;50.674;17.954;2022-09-13T07:59:13;17.30;99.90
21255;DHT22;10785;50.674;17.954;2022-09-13T08:01:43;17.50;99.90
21255;DHT22;10785;50.674;17.954;2022-09-13T08:04:13;17.50;99.90
21255;DHT22;10785;50.674;17.954;2022-09-13T08:06:44;17.40;99.90
21255;DHT22;10785;50.674;17.954;2022-09-13T08:09:13;17.40;99.90
21255;DHT22;10785;50.674;17.954;2022-09-13T08:11:43;17.40;99.90
21255;DHT22;10785;50.674;17.954;2022-09-13T08:14:15;17.30;99.90
21255;DHT22;10785;50.674;17.954;2022-09-13T08:16:44;17.70;99.90
21255;DHT22;10785;50.674;17.954;2022-09-13T08:19:13;17.80;99.90
21255;DHT22;10785;50.674;17.954;2022-09-13T08:21:43;17.90;99.90
21255;DHT22;10785;50.674;17.954;2022-09-13T08:24:13;18.00;99.90
21255;DHT22;10785;50.674;17.954;2022-09-13T08:26:43;18.00;99.90
21255;DHT22;10785;50.674;17.954;2022-09-13T08:29:14;18.00;99.90
21255;DHT22;10785;50.674;17.954;2022-09-13T08:31:43;18.20;99.90
21255;DHT22;10785;50.674;17.954;2022-09-13T08:34:13;18.50;99.90
21255;DHT22;10785;50.674;17.954;2022-09-13T08:36:43;18.60;99.90
21255;DHT22;10785;50.674;17.954;2022-09-13T08:39:12;18.70;99.90
21255;DHT22;10785;50.674;17.954;2022-09-13T08:42:00;18.70;99.90
21255;DHT22;10785;50.674;17.954;2022-09-13T08:44:34;18.90;99.90
21255;DHT22;10785;50.674;17.954;2022-09-13T08:47:20;19.20;99.90
21255;DHT22;10785;50.674;17.954;2022-09-13T08:49:52;19.30;99.90
21255;DHT22;10785;50.674;17.954;2022-09-13T08:52:27;19.10;99.90
21255;DHT22;10785;50.674;17.954;2022-09-13T08:54:57;19.10;99.90
21255;DHT22;10785;50.674;17.954;2022-09-13T08:57:30;19.10;99.90
21255;DHT22;10785;50.674;17.954;2022-09-13T09:00:10;18.90;99.90
21255;DHT22;10785;50.674;17.954;2022-09-13T09:02:55;18.90;99.90
21255;DHT22;10785;50.674;17.954;2022-09-13T09:05:27;19.10;99.90
21255;DHT22;10785;50.674;17.954;2022-09-13T09:07:58;19.30;99.90
21255;DHT22;10785;50.674;17.954;2022-09-13T09:10:32;19.40;99.90
21255;DHT22;10785;50.674;17.954;2022-09-13T09:13:05;19.40;99.90
21255;DHT22;10785;50.674;17.954;2022-09-13T09:15:39;19.30;99.90
21255;DHT22;10785;50.674;17.954;2022-09-13T09:18:13;19.40;99.90
21255;DHT22;10785;50.674;17.954;2022-09-13T09:20:45;19.40;99.90
21255;DHT22;10785;50.674;17.954;2022-09-13T09:23:18;19.50;99.90
21255;DHT22;10785;50.674;17.954;2022-09-13T09:25:50;19.40;99.90
21255;DHT22;10785;50.674;17.954;2022-09-13T09:28:19;19.50;99.90
21255;DHT22;10785;50.674;17.954;2022-09-13T09:30:57;19.50;99.90
21255;DHT22;10785;50.674;17.954;2022-09-13T09:33:52;19.50;99.90
21255;DHT22;10785;50.674;17.954;2022-09-13T09:36:32;19.50;99.90
21255;DHT22;10785;50.674;17.954;2022-09-13T09:39:04;19.70;99.90
21255;DHT22;10785;50.674;17.954;2022-09-13T09:41:35;19.80;99.90
21255;DHT22;10785;50.674;17.954;2022-09-13T09:44:13;19.80;99.90
21255;DHT22;10785;50.674;17.954;2022-09-13T09:46:48;19.90;99.90
21255;DHT22;10785;50.674;17.954;2022-09-13T09:49:23;20.00;99.90
21255;DHT22;10785;50.674;17.954;2022-09-13T09:52:14;20.00;99.90
21255;DHT22;10785;50.674;17.954;2022-09-13T09:54:44;20.10;99.90
21255;DHT22;10785;50.674;17.954;2022-09-13T09:57:13;20.20;99.90
21255;DHT22;10785;50.674;17.954;2022-09-13T09:59:41;20.10;99.90
21255;DHT22;10785;50.674;17.954;2022-09-13T10:02:15;20.10;99.90
21255;DHT22;10785;50.674;17.954;2022-09-13T10:04:54;20.30;99.90
21255;DHT22;10785;50.674;17.954;2022-09-13T10:07:26;20.50;99.90
21255;DHT22;10785;50.674;17.954;2022-09-13T10:09:59;20.60;99.00
21255;DHT22;10785;50.674;17.954;2022-09-13T10:12:32;20.70;97.30
21255;DHT22;10785;50.674;17.954;2022-09-13T10:15:12;20.80;96.50
21255;DHT22;10785;50.674;17.954;2022-09-13T10:18:00;20.70;96.90
21255;DHT22;10785;50.674;17.954;2022-09-13T10:20:29;20.90;98.10
21255;DHT22;10785;50.674;17.954;2022-09-13T10:23:18;21.00;96.90
21255;DHT22;10785;50.674;17.954;2022-09-13T10:26:06;21.30;96.10
21255;DHT22;10785;50.674;17.954;2022-09-13T10:28:43;21.30;95.00
21255;DHT22;10785;50.674;17.954;2022-09-13T10:31:17;21.40;94.40
21255;DHT22;10785;50.674;17.954;2022-09-13T10:33:56;21.60;94.50
21255;DHT22;10785;50.674;17.954;2022-09-13T10:36:30;21.90;92.30
21255;DHT22;10785;50.674;17.954;2022-09-13T10:39:21;21.90;91.30
21255;DHT22;10785;50.674;17.954;2022-09-13T10:41:53;22.20;91.00
21255;DHT22;10785;50.674;17.954;2022-09-13T10:44:28;22.30;89.10
21255;DHT22;10785;50.674;17.954;2022-09-13T10:47:02;22.10;90.60
21255;DHT22;10785;50.674;17.954;2022-09-13T10:49:43;22.00;90.00
21255;DHT22;10785;50.674;17.954;2022-09-13T10:52:31;22.00;87.30
21255;DHT22;10785;50.674;17.954;2022-09-13T10:55:24;22.10;85.00
21255;DHT22;10785;50.674;17.954;2022-09-13T10:57:55;22.00;86.70
21255;DHT22;10785;50.674;17.954;2022-09-13T11:00:53;21.90;90.10
21255;DHT22;10785;50.674;17.954;2022-09-13T11:03:34;22.10;89.50
21255;DHT22;10785;50.674;17.954;2022-09-13T11:06:14;22.20;87.50
21255;DHT22;10785;50.674;17.954;2022-09-13T11:08:52;22.00;86.10
21255;DHT22;10785;50.674;17.954;2022-09-13T11:11:27;21.50;86.60
21255;DHT22;10785;50.674;17.954;2022-09-13T11:14:07;21.30;89.80
21255;DHT22;10785;50.674;17.954;2022-09-13T11:16:47;21.10;90.20
21255;DHT22;10785;50.674;17.954;2022-09-13T11:19:52;20.90;91.00
21255;DHT22;10785;50.674;17.954;2022-09-13T11:22:39;20.60;92.20
21255;DHT22;10785;50.674;17.954;2022-09-13T11:25:25;20.30;94.00
21255;DHT22;10785;50.674;17.954;2022-09-13T11:28:02;20.30;94.40
21255;DHT22;10785;50.674;17.954;2022-09-13T11:30:39;20.30;94.50
21255;DHT22;10785;50.674;17.954;2022-09-13T11:33:24;20.40;94.40
21255;DHT22;10785;50.674;17.954;2022-09-13T11:36:12;20.40;95.00
21255;DHT22;10785;50.674;17.954;2022-09-13T11:38:54;20.50;95.70
21255;DHT22;10785;50.674;17.954;2022-09-13T11:41:35;20.60;96.30
21255;DHT22;10785;50.674;17.954;2022-09-13T11:44:24;20.60;97.10
21255;DHT22;10785;50.674;17.954;2022-09-13T11:47:02;20.70;96.90
21255;DHT22;10785;50.674;17.954;2022-09-13T11:49:56;20.80;97.10
21255;DHT22;10785;50.674;17.954;2022-09-13T11:52:40;20.90;95.80
21255;DHT22;10785;50.674;17.954;2022-09-13T11:55:25;21.00;95.00
21255;DHT22;10785;50.674;17.954;2022-09-13T11:58:01;21.10;94.60
21255;DHT22;10785;50.674;17.954;2022-09-13T12:00:33;21.20;95.20
21255;DHT22;10785;50.674;17.954;2022-09-13T12:03:14;21.40;96.30
21255;DHT22;10785;50.674;17.954;2022-09-13T12:05:49;21.60;95.10
21255;DHT22;10785;50.674;17.954;2022-09-13T12:08:22;21.70;93.40
21255;DHT22;10785;50.674;17.954;2022-09-13T12:10:57;21.50;91.10
21255;DHT22;10785;50.674;17.954;2022-09-13T12:13:29;21.50;90.50
21255;DHT22;10785;50.674;17.954;2022-09-13T12:16:02;21.50;91.40
21255;DHT22;10785;50.674;17.954;2022-09-13T12:18:35;21.50;90.00
21255;DHT22;10785;50.674;17.954;2022-09-13T12:21:08;21.50;89.60
21255;DHT22;10785;50.674;17.954;2022-09-13T12:23:42;21.50;90.00
21255;DHT22;10785;50.674;17.954;2022-09-13T12:26:19;21.50;85.80
21255;DHT22;10785;50.674;17.954;2022-09-13T12:28:53;21.50;88.60
21255;DHT22;10785;50.674;17.954;2022-09-13T12:31:25;21.80;89.50
21255;DHT22;10785;50.674;17.954;2022-09-13T12:33:55;21.80;88.40
21255;DHT22;10785;50.674;17.954;2022-09-13T12:36:39;21.80;85.80
21255;DHT22;10785;50.674;17.954;2022-09-13T12:39:26;21.80;86.50
21255;DHT22;10785;50.674;17.954;2022-09-13T12:42:31;21.80;87.30
21255;DHT22;10785;50.674;17.954;2022-09-13T12:45:20;21.90;87.80
21255;DHT22;10785;50.674;17.954;2022-09-13T12:48:13;21.90;88.70
21255;DHT22;10785;50.674;17.954;2022-09-13T12:50:58;22.00;87.80
21255;DHT22;10785;50.674;17.954;2022-09-13T12:53:44;22.00;85.00
21255;DHT22;10785;50.674;17.954;2022-09-13T12:56:28;22.00;84.00
21255;DHT22;10785;50.674;17.954;2022-09-13T12:59:19;21.90;86.30
21255;DHT22;10785;50.674;17.954;2022-09-13T13:01:52;21.80;85.60
21255;DHT22;10785;50.674;17.954;2022-09-13T13:04:24;21.80;86.00
21255;DHT22;10785;50.674;17.954;2022-09-13T13:06:56;22.00;85.50
21255;DHT22;10785;50.674;17.954;2022-09-13T13:09:36;22.30;86.90
21255;DHT22;10785;50.674;17.954;2022-09-13T13:12:09;22.70;85.90
21255;DHT22;10785;50.674;17.954;2022-09-13T13:14:47;22.90;80.40
21255;DHT22;10785;50.674;17.954;2022-09-13T13:17:37;22.70;81.10
21255;DHT22;10785;50.674;17.954;2022-09-13T13:20:38;22.60;79.20
21255;DHT22;10785;50.674;17.954;2022-09-13T13:23:21;22.50;79.40
21255;DHT22;10785;50.674;17.954;2022-09-13T13:26:03;22.40;81.40
21255;DHT22;10785;50.674;17.954;2022-09-13T13:29:10;22.30;83.60
21255;DHT22;10785;50.674;17.954;2022-09-13T13:34:38;22.10;83.30
21255;DHT22;10785;50.674;17.954;2022-09-13T13:37:33;22.00;84.00
21255;DHT22;10785;50.674;17.954;2022-09-13T13:40:24;22.10;84.20
21255;DHT22;10785;50.674;17.954;2022-09-13T13:46:27;22.40;80.10
21255;DHT22;10785;50.674;17.954;2022-09-13T13:52:38;22.30;79.20
21255;DHT22;10785;50.674;17.954;2022-09-13T13:55:38;22.10;82.30
21255;DHT22;10785;50.674;17.954;2022-09-13T13:58:42;22.30;81.60
21255;DHT22;10785;50.674;17.954;2022-09-13T14:01:17;22.10;82.20
21255;DHT22;10785;50.674;17.954;2022-09-13T14:07:00;21.80;82.00
21255;DHT22;10785;50.674;17.954;2022-09-13T14:09:52;21.70;83.40
21255;DHT22;10785;50.674;17.954;2022-09-13T14:12:34;21.70;85.70
21255;DHT22;10785;50.674;17.954;2022-09-13T14:15:30;21.70;86.50
21255;DHT22;10785;50.674;17.954;2022-09-13T14:18:38;21.80;86.00
21255;DHT22;10785;50.674;17.954;2022-09-13T14:21:21;21.90;86.20
21255;DHT22;10785;50.674;17.954;2022-09-13T14:24:16;22.00;85.40
21255;DHT22;10785;50.674;17.954;2022-09-13T14:26:48;21.90;86.30
21255;DHT22;10785;50.674;17.954;2022-09-13T14:29:18;21.80;86.80
21255;DHT22;10785;50.674;17.954;2022-09-13T14:31:51;21.60;86.90
21255;DHT22;10785;50.674;17.954;2022-09-13T14:34:23;21.60;85.90
21255;DHT22;10785;50.674;17.954;2022-09-13T14:36:53;21.50;86.00
21255;DHT22;10785;50.674;17.954;2022-09-13T14:39:23;21.40;87.80
21255;DHT22;10785;50.674;17.954;2022-09-13T14:42:12;21.20;87.20
21255;DHT22;10785;50.674;17.954;2022-09-13T14:44:46;21.20;88.50
21255;DHT22;10785;50.674;17.954;2022-09-13T14:47:18;21.10;89.10
21255;DHT22;10785;50.674;17.954;2022-09-13T14:49:51;21.10;90.00
21255;DHT22;10785;50.674;17.954;2022-09-13T14:52:25;21.10;91.10
21255;DHT22;10785;50.674;17.954;2022-09-13T14:55:01;21.00;91.30
21255;DHT22;10785;50.674;17.954;2022-09-13T14:57:36;20.90;91.60
21255;DHT22;10785;50.674;17.954;2022-09-13T15:00:16;20.90;92.40
21255;DHT22;10785;50.674;17.954;2022-09-13T15:02:51;20.80;92.90
21255;DHT22;10785;50.674;17.954;2022-09-13T15:05:22;20.80;94.30
21255;DHT22;10785;50.674;17.954;2022-09-13T15:07:51;20.80;94.60
21255;DHT22;10785;50.674;17.954;2022-09-13T15:10:25;20.80;94.20
21255;DHT22;10785;50.674;17.954;2022-09-13T15:13:07;20.80;94.70
21255;DHT22;10785;50.674;17.954;2022-09-13T15:15:37;20.80;94.90
21255;DHT22;10785;50.674;17.954;2022-09-13T15:18:23;20.70;94.70
21255;DHT22;10785;50.674;17.954;2022-09-13T15:20:53;20.70;95.10
21255;DHT22;10785;50.674;17.954;2022-09-13T15:23:26;20.60;95.40
21255;DHT22;10785;50.674;17.954;2022-09-13T15:25:58;20.70;95.50
21255;DHT22;10785;50.674;17.954;2022-09-13T15:28:33;20.60;95.70
21255;DHT22;10785;50.674;17.954;2022-09-13T15:31:19;20.60;96.10
21255;DHT22;10785;50.674;17.954;2022-09-13T15:34:11;20.60;96.70
21255;DHT22;10785;50.674;17.954;2022-09-13T15:36:41;20.60;96.90
21255;DHT22;10785;50.674;17.954;2022-09-13T15:39:14;20.60;97.50
21255;DHT22;10785;50.674;17.954;2022-09-13T15:41:51;20.50;99.30
21255;DHT22;10785;50.674;17.954;2022-09-13T15:44:23;20.40;99.20
21255;DHT22;10785;50.674;17.954;2022-09-13T15:46:53;20.40;99.90
21255;DHT22;10785;50.674;17.954;2022-09-13T15:49:24;20.30;99.90
21255;DHT22;10785;50.674;17.954;2022-09-13T15:51:56;20.30;99.90
21255;DHT22;10785;50.674;17.954;2022-09-13T15:54:31;20.20;99.90
21255;DHT22;10785;50.674;17.954;2022-09-13T15:57:06;20.10;99.90
21255;DHT22;10785;50.674;17.954;2022-09-13T15:59:37;20.10;99.90
21255;DHT22;10785;50.674;17.954;2022-09-13T16:02:17;20.10;99.90
21255;DHT22;10785;50.674;17.954;2022-09-13T16:04:47;20.00;99.90
21255;DHT22;10785;50.674;17.954;2022-09-13T16:07:16;20.00;99.90
21255;DHT22;10785;50.674;17.954;2022-09-13T16:09:45;20.00;99.90
21255;DHT22;10785;50.674;17.954;2022-09-13T16:12:15;19.90;99.90
21255;DHT22;10785;50.674;17.954;2022-09-13T16:14:48;19.90;99.90
21255;DHT22;10785;50.674;17.954;2022-09-13T16:17:19;19.90;99.90
21255;DHT22;10785;50.674;17.954;2022-09-13T16:19:56;19.90;99.90
21255;DHT22;10785;50.674;17.954;2022-09-13T16:22:26;19.80;99.90